sensor_id;sensor_type;location;lat;lon;timestamp;pressure;altitude;pressure_sealevel;temperature;humidity
53754;BME280;39667;52.274;20.964;2023-02-28T00:03:10;101870.38;;;-0.67;55.52
53754;BME280;39667;52.274;20.964;2023-02-28T00:07:23;101870.33;;;-0.68;55.63
53754;BME280;39667;52.274;20.964;2023-02-28T00:10:37;101867.91;;;-0.68;55.91
53754;BME280;39667;52.274;20.964;2023-02-28T00:14:12;101872.89;;;-0.68;56.21
53754;BME280;39667;52.274;20.964;2023-02-28T00:18:04;101873.11;;;-0.71;56.25
53754;BME280;39667;52.274;20.964;2023-02-28T00:21:04;101872.96;;;-0.73;56.00
53754;BME280;39667;52.274;20.964;2023-02-28T00:24:45;101875.99;;;-0.72;56.45
53754;BME280;39667;52.274;20.964;2023-02-28T00:27:58;101880.89;;;-0.71;56.52
53754;BME280;39667;52.274;20.964;2023-02-28T00:31:14;101880.80;;;-0.72;56.50
53754;BME280;39667;52.274;20.964;2023-02-28T00:34:38;101883.91;;;-0.73;56.65
53754;BME280;39667;52.274;20.964;2023-02-28T00:37:59;101881.64;;;-0.73;56.64
53754;BME280;39667;52.274;20.964;2023-02-28T00:41:30;101881.96;;;-0.77;56.50
53754;BME280;39667;52.274;20.964;2023-02-28T00:44:57;101877.93;;;-0.80;56.33
53754;BME280;39667;52.274;20.964;2023-02-28T00:48:22;101883.36;;;-0.82;56.74
53754;BME280;39667;52.274;20.964;2023-02-28T00:52:01;101878.56;;;-0.84;56.88
53754;BME280;39667;52.274;20.964;2023-02-28T00:54:50;101875.71;;;-0.85;56.72
53754;BME280;39667;52.274;20.964;2023-02-28T00:58:14;101879.27;;;-0.89;56.52
53754;BME280;39667;52.274;20.964;2023-02-28T01:01:24;101874.69;;;-0.91;56.75
53754;BME280;39667;52.274;20.964;2023-02-28T01:05:00;101874.92;;;-0.95;56.49
53754;BME280;39667;52.274;20.964;2023-02-28T01:09:04;101878.11;;;-0.97;56.52
53754;BME280;39667;52.274;20.964;2023-02-28T01:13:05;101874.29;;;-0.97;57.09
53754;BME280;39667;52.274;20.964;2023-02-28T01:16:25;101878.10;;;-1.00;57.25
53754;BME280;39667;52.274;20.964;2023-02-28T01:19:35;101874.52;;;-1.05;57.17
53754;BME280;39667;52.274;20.964;2023-02-28T01:22:52;101872.84;;;-1.10;57.38
53754;BME280;39667;52.274;20.964;2023-02-28T01:26:58;101877.17;;;-1.18;57.69
53754;BME280;39667;52.274;20.964;2023-02-28T01:30:12;101879.00;;;-1.24;57.65
53754;BME280;39667;52.274;20.964;2023-02-28T01:32:41;101878.56;;;-1.26;58.10
53754;BME280;39667;52.274;20.964;2023-02-28T01:35:13;101887.89;;;-1.32;57.66
53754;BME280;39667;52.274;20.964;2023-02-28T01:37:52;101888.29;;;-1.45;57.34
53754;BME280;39667;52.274;20.964;2023-02-28T01:41:29;101894.67;;;-1.61;57.55
53754;BME280;39667;52.274;20.964;2023-02-28T01:45:28;101892.48;;;-1.63;58.39
53754;BME280;39667;52.274;20.964;2023-02-28T01:52:03;101894.46;;;-1.59;58.76
53754;BME280;39667;52.274;20.964;2023-02-28T01:54:54;101893.80;;;-1.58;58.98
53754;BME280;39667;52.274;20.964;2023-02-28T01:57:48;101893.11;;;-1.56;59.29
53754;BME280;39667;52.274;20.964;2023-02-28T02:03:40;101890.12;;;-1.54;59.53
53754;BME280;39667;52.274;20.964;2023-02-28T02:06:42;101886.34;;;-1.54;59.47
53754;BME280;39667;52.274;20.964;2023-02-28T02:10:06;101884.89;;;-1.52;59.68
53754;BME280;39667;52.274;20.964;2023-02-28T08:45:08;101952.20;;;2.41;49.70
53754;BME280;39667;52.274;20.964;2023-02-28T08:47:45;101956.14;;;2.55;49.79
53754;BME280;39667;52.274;20.964;2023-02-28T08:50:13;101954.70;;;2.64;49.51
53754;BME280;39667;52.274;20.964;2023-02-28T08:52:43;101952.73;;;2.70;49.24
53754;BME280;39667;52.274;20.964;2023-02-28T08:55:12;101955.05;;;2.75;49.24
53754;BME280;39667;52.274;20.964;2023-02-28T08:58:10;101952.22;;;2.93;49.06
53754;BME280;39667;52.274;20.964;2023-02-28T09:00:42;101952.44;;;3.08;48.94
53754;BME280;39667;52.274;20.964;2023-02-28T09:03:13;101952.55;;;3.22;48.68
53754;BME280;39667;52.274;20.964;2023-02-28T09:06:05;101950.29;;;3.42;48.77
53754;BME280;39667;52.274;20.964;2023-02-28T09:08:33;101948.12;;;3.52;48.13
53754;BME280;39667;52.274;20.964;2023-02-28T09:11:03;101950.51;;;3.63;47.70
53754;BME280;39667;52.274;20.964;2023-02-28T09:13:38;101957.35;;;3.67;47.33
53754;BME280;39667;52.274;20.964;2023-02-28T09:16:16;101959.42;;;3.67;46.42
53754;BME280;39667;52.274;20.964;2023-02-28T09:25:06;101965.02;;;3.64;46.69
53754;BME280;39667;52.274;20.964;2023-02-28T09:27:47;101964.52;;;3.68;45.96
53754;BME280;39667;52.274;20.964;2023-02-28T09:30:19;101962.20;;;3.75;46.02
53754;BME280;39667;52.274;20.964;2023-02-28T09:32:50;101961.19;;;3.83;45.98
53754;BME280;39667;52.274;20.964;2023-02-28T09:35:25;101954.98;;;3.93;45.71
53754;BME280;39667;52.274;20.964;2023-02-28T09:38:23;101949.68;;;4.00;45.03
53754;BME280;39667;52.274;20.964;2023-02-28T09:41:26;101953.04;;;3.96;45.21
53754;BME280;39667;52.274;20.964;2023-02-28T09:44:06;101951.87;;;4.14;45.43
53754;BME280;39667;52.274;20.964;2023-02-28T09:46:48;101951.77;;;4.28;45.38
53754;BME280;39667;52.274;20.964;2023-02-28T09:49:51;101952.64;;;4.54;45.96
53754;BME280;39667;52.274;20.964;2023-02-28T09:52:36;101950.75;;;4.82;45.95
53754;BME280;39667;52.274;20.964;2023-02-28T09:55:28;101950.71;;;5.03;45.35
53754;BME280;39667;52.274;20.964;2023-02-28T09:58:41;101947.79;;;5.27;45.25
53754;BME280;39667;52.274;20.964;2023-02-28T10:09:00;101959.79;;;4.89;44.13
53754;BME280;39667;52.274;20.964;2023-02-28T10:11:16;101963.20;;;5.10;44.22
53754;BME280;39667;52.274;20.964;2023-02-28T10:14:26;101957.96;;;5.29;44.42
53754;BME280;39667;52.274;20.964;2023-02-28T10:17:36;101956.46;;;5.26;42.99
53754;BME280;39667;52.274;20.964;2023-02-28T10:21:39;101960.54;;;5.04;42.31
53754;BME280;39667;52.274;20.964;2023-02-28T10:24:52;101952.02;;;4.92;43.91
53754;BME280;39667;52.274;20.964;2023-02-28T10:28:26;101951.32;;;5.14;43.66
53754;BME280;39667;52.274;20.964;2023-02-28T10:32:01;101953.98;;;5.34;43.04
53754;BME280;39667;52.274;20.964;2023-02-28T10:38:33;101946.33;;;5.16;43.27
53754;BME280;39667;52.274;20.964;2023-02-28T10:42:00;101943.94;;;5.32;42.69
53754;BME280;39667;52.274;20.964;2023-02-28T10:45:16;101945.76;;;5.20;42.32
53754;BME280;39667;52.274;20.964;2023-02-28T10:48:02;101940.96;;;5.13;42.23
53754;BME280;39667;52.274;20.964;2023-02-28T10:51:15;101937.39;;;5.34;42.84
53754;BME280;39667;52.274;20.964;2023-02-28T10:55:15;101938.17;;;5.61;42.46
53754;BME280;39667;52.274;20.964;2023-02-28T11:02:47;101931.51;;;5.65;42.50
53754;BME280;39667;52.274;20.964;2023-02-28T11:05:44;101925.91;;;5.79;41.74
53754;BME280;39667;52.274;20.964;2023-02-28T11:08:43;101919.13;;;5.86;41.89
53754;BME280;39667;52.274;20.964;2023-02-28T11:12:04;101912.70;;;5.98;41.59
53754;BME280;39667;52.274;20.964;2023-02-28T11:18:56;101900.89;;;6.52;41.71
53754;BME280;39667;52.274;20.964;2023-02-28T11:22:15;101896.65;;;6.68;41.54
53754;BME280;39667;52.274;20.964;2023-02-28T11:24:55;101889.77;;;6.79;41.23
53754;BME280;39667;52.274;20.964;2023-02-28T11:28:23;101887.86;;;6.78;40.76
53754;BME280;39667;52.274;20.964;2023-02-28T11:31:26;101887.08;;;6.76;40.34
53754;BME280;39667;52.274;20.964;2023-02-28T11:34:28;101886.27;;;6.50;39.87
53754;BME280;39667;52.274;20.964;2023-02-28T11:37:36;101882.48;;;6.46;40.57
53754;BME280;39667;52.274;20.964;2023-02-28T12:10:09;101849.09;;;6.94;40.31
53754;BME280;39667;52.274;20.964;2023-02-28T12:16:27;101849.14;;;6.78;39.45
53754;BME280;39667;52.274;20.964;2023-02-28T12:26:42;101830.51;;;7.05;39.75
53754;BME280;39667;52.274;20.964;2023-02-28T12:32:43;101830.41;;;7.15;39.71
53754;BME280;39667;52.274;20.964;2023-02-28T12:36:14;101828.14;;;7.08;39.41
53754;BME280;39667;52.274;20.964;2023-02-28T12:38:22;101825.15;;;7.08;40.14
53754;BME280;39667;52.274;20.964;2023-02-28T12:44:49;101818.10;;;7.13;39.46
53754;BME280;39667;52.274;20.964;2023-02-28T12:47:22;101816.55;;;7.07;39.49
53754;BME280;39667;52.274;20.964;2023-02-28T12:50:05;101813.80;;;7.03;39.68
53754;BME280;39667;52.274;20.964;2023-02-28T13:00:25;101809.58;;;7.03;39.04
53754;BME280;39667;52.274;20.964;2023-02-28T13:03:33;101810.15;;;6.80;39.02
53754;BME280;39667;52.274;20.964;2023-02-28T13:09:54;101807.90;;;6.68;39.63
53754;BME280;39667;52.274;20.964;2023-02-28T13:12:24;101805.86;;;6.71;39.80
53754;BME280;39667;52.274;20.964;2023-02-28T13:21:43;101789.86;;;6.99;39.22
53754;BME280;39667;52.274;20.964;2023-02-28T13:27:34;101785.04;;;7.02;39.04
